Time,TemperatureF,DewpointF,PressureIn,WindDirection,WindDirectionDegrees,WindSpeedMPH,WindSpeedGustMPH,Humidity,HourlyPrecipIn,Conditions,Clouds,dailyrainin,SoftwareType,DateUTC
2013-01-22 00:05:00,23.5,19.7,29.79,NNE,27,0.0,0.0,85,0.00,OVC,,0.00,WeatherDisplay:10.37,2013-01-22 05:05:00,
2013-01-22 00:10:00,23.4,19.6,29.78,North,11,0.0,0.0,85,0.00,OVC,,0.00,WeatherDisplay:10.37,2013-01-22 05:10:00,
2013-01-22 00:15:00,23.4,19.6,29.78,NNE,12,0.0,0.0,85,0.00,OVC,,0.00,WeatherDisplay:10.37,2013-01-22 05:15:00,
2013-01-22 00:20:00,23.4,19.6,29.79,NNE,12,0.0,0.0,85,0.00,OVC,,0.00,WeatherDisplay:10.37,2013-01-22 05:20:00,
2013-01-22 00:25:00,23.3,19.5,29.78,North,7,0.0,0.0,85,0.00,OVC,,0.00,WeatherDisplay:10.37,2013-01-22 05:25:00,
2013-01-22 00:30:00,23.3,19.5,29.78,North,1,0.0,0.0,85,0.00,OVC,,0.00,WeatherDisplay:10.37,2013-01-22 05:30:00,
2013-01-22 00:35:00,23.4,19.5,29.78,North,360,0.0,0.0,85,0.00,OVC,,0.00,WeatherDisplay:10.37,2013-01-22 05:35:00,
2013-01-22 00:45:00,23.3,19.5,29.76,NNW,330,0.0,0.0,85,0.00,OVC,,0.00,WeatherDisplay:10.37,2013-01-22 05:45:00,
2013-01-22 00:50:00,23.3,19.4,29.75,NW,320,0.0,0.0,85,0.00,OVC,,0.00,WeatherDisplay:10.37,2013-01-22 05:50:00,
2013-01-22 00:55:00,23.1,19.3,29.77,North,359,0.0,1.0,85,0.00,OVC,,0.00,WeatherDisplay:10.37,2013-01-22 05:55:00,
2013-01-22 01:00:00,23.1,19.3,29.77,NNE,12,0.0,1.0,85,0.00,OVC,,0.00,WeatherDisplay:10.37,2013-01-22 06:00:00,
2013-01-22 01:05:00,23.1,19.5,29.77,NW,313,0.0,0.0,86,0.00,-SN,,0.00,WeatherDisplay:10.37,2013-01-22 06:05:00,
2013-01-22 01:10:00,23.1,19.3,29.76,WNW,294,0.0,0.0,85,0.00,-SN,,0.00,WeatherDisplay:10.37,2013-01-22 06:10:00,
2013-01-22 01:15:00,23.1,19.3,29.76,WNW,294,0.0,0.0,85,0.00,-SN,,0.00,WeatherDisplay:10.37,2013-01-22 06:15:00,
2013-01-22 01:20:00,23.2,19.3,29.75,WNW,294,0.0,0.0,85,0.00,-SN,,0.00,WeatherDisplay:10.37,2013-01-22 06:20:00,
2013-01-22 01:25:00,23.2,19.4,29.75,WNW,294,0.0,0.0,85,0.00,-SN,,0.00,WeatherDisplay:10.37,2013-01-22 06:25:00,
2013-01-22 01:30:00,23.3,19.5,29.75,WNW,294,0.0,0.0,85,0.00,-SN,,0.00,WeatherDisplay:10.37,2013-01-22 06:30:00,
2013-01-22 01:35:00,23.2,19.1,29.76,WNW,294,0.0,0.0,84,0.00,-SN,,0.00,WeatherDisplay:10.37,2013-01-22 06:35:00,
2013-01-22 01:40:00,22.7,18.9,29.77,WNW,294,0.0,0.0,85,0.00,-SN,,0.00,WeatherDisplay:10.37,2013-01-22 06:40:00,
2013-01-22 01:45:00,22.3,18.8,29.77,WNW,294,0.0,0.0,86,0.00,-SN,,0.00,WeatherDisplay:10.37,2013-01-22 06:45:00,
2013-01-22 01:50:00,22.0,18.4,29.77,WNW,294,0.0,0.0,86,0.00,-SN,,0.00,WeatherDisplay:10.37,2013-01-22 06:50:00,
2013-01-22 01:55:00,21.9,18.6,29.77,WNW,294,0.0,0.0,87,0.00,-SN,,0.00,WeatherDisplay:10.37,2013-01-22 06:55:00,
2013-01-22 02:00:00,21.9,18.4,29.77,WNW,294,0.0,0.0,86,0.00,-SN,,0.00,WeatherDisplay:10.37,2013-01-22 07:00:00,
2013-01-22 02:05:00,21.9,18.4,29.77,WNW,294,0.0,0.0,86,0.00,-SN,,0.00,WeatherDisplay:10.37,2013-01-22 07:05:00,
2013-01-22 02:10:00,21.8,18.0,29.77,WNW,294,0.0,0.0,85,0.00,-SN,,0.00,WeatherDisplay:10.37,2013-01-22 07:10:00,
2013-01-22 02:15:00,21.8,18.0,29.77,WNW,294,0.0,0.0,85,0.00,-SN,,0.00,WeatherDisplay:10.37,2013-01-22 07:15:00,
2013-01-22 02:20:00,21.7,17.9,29.77,WNW,294,0.0,0.0,85,0.00,BKN,,0.00,WeatherDisplay:10.37,2013-01-22 07:20:00,
2013-01-22 02:25:00,21.6,17.8,29.76,WNW,294,0.0,0.0,85,0.00,BKN,,0.00,WeatherDisplay:10.37,2013-01-22 07:25:00,
2013-01-22 02:30:00,21.6,17.5,29.76,WNW,294,0.0,0.0,84,0.00,BKN,,0.00,WeatherDisplay:10.37,2013-01-22 07:30:00,
2013-01-22 02:40:00,21.0,16.9,29.76,WNW,294,0.0,0.0,84,0.00,BKN,,0.00,WeatherDisplay:10.37,2013-01-22 07:40:00,
2013-01-22 02:45:00,20.6,16.8,29.76,WNW,294,0.0,0.0,85,0.00,BKN,,0.00,WeatherDisplay:10.37,2013-01-22 07:45:00,
2013-01-22 02:50:00,20.4,16.6,29.75,WNW,294,0.0,0.0,85,0.00,BKN,,0.00,WeatherDisplay:10.37,2013-01-22 07:50:00,
2013-01-22 02:55:00,20.3,16.5,29.76,WNW,294,0.0,0.0,85,0.00,BKN,,0.00,WeatherDisplay:10.37,2013-01-22 07:55:00,
2013-01-22 03:00:00,20.1,16.0,29.76,WNW,294,0.0,0.0,84,0.00,BKN,,0.00,WeatherDisplay:10.37,2013-01-22 08:00:00,
2013-01-22 03:05:00,20.0,16.0,29.76,WNW,294,0.0,0.0,84,0.00,BKN,,0.00,WeatherDisplay:10.37,2013-01-22 08:05:00,
2013-01-22 03:10:00,20.1,16.0,29.76,WNW,294,0.0,0.0,84,0.00,BKN,,0.00,WeatherDisplay:10.37,2013-01-22 08:10:00,
2013-01-22 03:15:00,19.8,15.5,29.75,WNW,294,0.0,0.0,83,0.00,BKN,,0.00,WeatherDisplay:10.37,2013-01-22 08:15:00,
2013-01-22 03:20:00,19.5,15.2,29.75,WNW,294,0.0,0.0,83,0.00,BKN,,0.00,WeatherDisplay:10.37,2013-01-22 08:20:00,
2013-01-22 03:25:00,19.3,15.3,29.75,WNW,294,0.0,0.0,84,0.00,BKN,,0.00,WeatherDisplay:10.37,2013-01-22 08:25:00,
2013-01-22 03:30:00,19.3,15.5,29.75,WNW,294,0.0,0.0,85,0.00,BKN,,0.00,WeatherDisplay:10.37,2013-01-22 08:30:00,
2013-01-22 03:35:00,19.3,15.5,29.75,WNW,294,0.0,0.0,85,0.00,BKN,,0.00,WeatherDisplay:10.37,2013-01-22 08:35:00,
2013-01-22 03:40:00,19.3,15.5,29.75,WNW,294,0.0,0.0,85,0.00,BKN,,0.00,WeatherDisplay:10.37,2013-01-22 08:40:00,
2013-01-22 03:45:00,19.3,15.2,29.75,WNW,294,0.0,0.0,84,0.00,BKN,,0.00,WeatherDisplay:10.37,2013-01-22 08:45:00,
2013-01-22 03:50:00,19.1,14.8,29.75,WNW,294,0.0,0.0,83,0.00,-SN,,0.00,WeatherDisplay:10.37,2013-01-22 08:50:00,
2013-01-22 03:55:00,19.0,14.7,29.75,WNW,294,0.0,0.0,83,0.00,-SN,,0.00,WeatherDisplay:10.37,2013-01-22 08:55:00,
2013-01-22 04:00:00,18.9,14.9,29.75,WNW,294,0.0,0.0,84,0.00,-SN,,0.00,WeatherDisplay:10.37,2013-01-22 09:00:00,
2013-01-22 04:05:00,18.9,14.6,29.75,WNW,294,0.0,0.0,83,0.00,-SN,,0.00,WeatherDisplay:10.37,2013-01-22 09:05:00,
2013-01-22 04:10:00,18.9,14.6,29.75,WNW,294,0.0,0.0,83,0.00,-SN,,0.00,WeatherDisplay:10.37,2013-01-22 09:10:00,
2013-01-22 04:15:00,18.9,14.6,29.75,WNW,294,0.0,0.0,83,0.00,-SN,,0.00,WeatherDisplay:10.37,2013-01-22 09:15:00,
2013-01-22 04:20:00,18.8,14.5,29.76,WNW,294,0.0,0.0,83,0.00,-SN,,0.00,WeatherDisplay:10.37,2013-01-22 09:20:00,
2013-01-22 04:25:00,18.8,14.5,29.76,WNW,294,0.0,0.0,83,0.00,-SN,,0.00,WeatherDisplay:10.37,2013-01-22 09:25:00,
2013-01-22 04:30:00,18.9,14.6,29.75,WNW,294,0.0,0.0,83,0.00,-SN,,0.00,WeatherDisplay:10.37,2013-01-22 09:30:00,
2013-01-22 04:35:00,18.9,14.3,29.75,WNW,294,0.0,0.0,82,0.00,-SN,,0.00,WeatherDisplay:10.37,2013-01-22 09:35:00,
2013-01-22 04:40:00,19.0,14.7,29.75,WNW,294,0.0,0.0,83,0.00,-SN,,0.00,WeatherDisplay:10.37,2013-01-22 09:40:00,
2013-01-22 04:45:00,19.0,14.7,29.75,WNW,294,0.0,0.0,83,0.00,-SN,,0.00,WeatherDisplay:10.37,2013-01-22 09:45:00,
2013-01-22 04:50:00,19.0,14.7,29.75,WNW,294,0.0,0.0,83,0.00,-SN,,0.00,WeatherDisplay:10.37,2013-01-22 09:50:00,
2013-01-22 04:55:00,18.9,14.6,29.75,WNW,294,0.0,0.0,83,0.00,-SN,,0.00,WeatherDisplay:10.37,2013-01-22 09:55:00,
2013-01-22 05:00:00,18.8,14.5,29.75,WNW,294,0.0,0.0,83,0.00,-SN,,0.00,WeatherDisplay:10.37,2013-01-22 10:00:00,
2013-01-22 05:05:00,18.8,14.8,29.75,WNW,294,0.0,0.0,84,0.00,-SN,,0.00,WeatherDisplay:10.37,2013-01-22 10:05:00,
2013-01-22 05:10:00,18.6,14.6,29.75,WNW,294,0.0,0.0,84,0.00,-SN,,0.00,WeatherDisplay:10.37,2013-01-22 10:10:00,
2013-01-22 05:15:00,18.6,14.8,29.75,WNW,294,0.0,0.0,85,0.00,-SN,,0.00,WeatherDisplay:10.37,2013-01-22 10:15:00,
2013-01-22 05:20:00,18.6,14.8,29.75,WNW,294,0.0,0.0,85,0.00,-SN,,0.00,WeatherDisplay:10.37,2013-01-22 10:20:00,
2013-01-22 05:25:00,18.7,14.9,29.76,WNW,294,0.0,0.0,85,0.00,-SN,,0.00,WeatherDisplay:10.37,2013-01-22 10:25:00,
2013-01-22 05:30:00,18.9,15.1,29.76,WNW,294,0.0,0.0,85,0.00,-SN,,0.00,WeatherDisplay:10.37,2013-01-22 10:30:00,
2013-01-22 05:35:00,18.9,15.1,29.76,WNW,294,0.0,0.0,85,0.00,-SN,,0.00,WeatherDisplay:10.37,2013-01-22 10:35:00,
2013-01-22 05:40:00,18.9,15.1,29.76,WNW,294,0.0,0.0,85,0.00,-SN,,0.00,WeatherDisplay:10.37,2013-01-22 10:40:00,
2013-01-22 05:45:00,19.0,15.2,29.76,WNW,294,0.0,0.0,85,0.00,-SN,,0.00,WeatherDisplay:10.37,2013-01-22 10:45:00,
2013-01-22 05:50:00,19.0,15.2,29.76,WNW,294,0.0,0.0,85,0.00,-SN,,0.00,WeatherDisplay:10.37,2013-01-22 10:50:00,
2013-01-22 05:55:00,19.1,15.3,29.76,WNW,294,0.0,0.0,85,0.00,-SN,,0.00,WeatherDisplay:10.37,2013-01-22 10:55:00,
2013-01-22 06:00:00,19.3,15.5,29.76,WNW,294,0.0,0.0,85,0.00,-SN,,0.00,WeatherDisplay:10.37,2013-01-22 11:00:00,
2013-01-22 06:05:00,19.3,15.3,29.76,WNW,294,0.0,0.0,84,0.00,-SN,,0.00,WeatherDisplay:10.37,2013-01-22 11:05:00,
2013-01-22 06:10:00,19.3,15.3,29.77,WNW,294,0.0,0.0,84,0.00,-SN,,0.00,WeatherDisplay:10.37,2013-01-22 11:10:00,
2013-01-22 06:15:00,19.3,15.0,29.77,WNW,294,0.0,0.0,83,0.00,-SN,,0.00,WeatherDisplay:10.37,2013-01-22 11:15:00,
2013-01-22 06:20:00,19.3,15.0,29.77,WNW,294,0.0,0.0,83,0.00,-SN,,0.00,WeatherDisplay:10.37,2013-01-22 11:20:00,
2013-01-22 06:25:00,19.1,14.8,29.77,WNW,294,0.0,0.0,83,0.00,-SN,,0.00,WeatherDisplay:10.37,2013-01-22 11:25:00,
2013-01-22 06:30:00,18.9,14.6,29.77,WNW,294,0.0,0.0,83,0.00,-SN,,0.00,WeatherDisplay:10.37,2013-01-22 11:30:00,
2013-01-22 06:35:00,18.9,14.6,29.77,WNW,294,0.0,0.0,83,0.00,-SN,,0.00,WeatherDisplay:10.37,2013-01-22 11:35:00,
2013-01-22 06:40:00,18.6,14.0,29.77,WNW,294,0.0,0.0,82,0.00,-SN,,0.00,WeatherDisplay:10.37,2013-01-22 11:40:00,
2013-01-22 06:45:00,18.5,14.2,29.78,WNW,294,0.0,0.0,83,0.00,-SN,,0.00,WeatherDisplay:10.37,2013-01-22 11:45:00,
2013-01-22 06:50:00,18.4,14.1,29.78,WNW,294,0.0,0.0,83,0.00,-SN,,0.00,WeatherDisplay:10.37,2013-01-22 11:50:00,
2013-01-22 06:55:00,18.3,14.0,29.78,WNW,294,0.0,0.0,83,0.00,-SN,,0.00,WeatherDisplay:10.37,2013-01-22 11:55:00,
2013-01-22 07:00:00,18.2,14.2,29.78,WNW,294,0.0,0.0,84,0.00,-SN,,0.00,WeatherDisplay:10.37,2013-01-22 12:00:00,
2013-01-22 07:05:00,18.0,14.0,29.78,WNW,294,0.0,0.0,84,0.00,-SN,,0.00,WeatherDisplay:10.37,2013-01-22 12:05:00,
2013-01-22 07:10:00,18.0,14.3,29.78,NNW,339,0.0,0.0,85,0.00,-SN,,0.00,WeatherDisplay:10.37,2013-01-22 12:10:00,
2013-01-22 07:15:00,18.0,14.5,29.78,North,355,0.0,0.0,86,0.00,-SN,,0.00,WeatherDisplay:10.37,2013-01-22 12:15:00,
2013-01-22 07:20:00,18.0,14.5,29.79,NW,316,0.0,1.0,86,0.00,SCT,,0.00,WeatherDisplay:10.37,2013-01-22 12:20:00,
2013-01-22 07:25:00,18.0,14.5,29.79,NW,319,0.0,2.0,86,0.00,SCT,,0.00,WeatherDisplay:10.37,2013-01-22 12:25:00,
2013-01-22 07:30:00,18.0,14.5,29.79,NW,320,1.0,7.0,86,0.00,SCT,,0.00,WeatherDisplay:10.37,2013-01-22 12:30:00,
2013-01-22 07:35:00,18.0,14.5,29.79,NW,317,0.0,2.0,86,0.00,SCT,,0.00,WeatherDisplay:10.37,2013-01-22 12:35:00,
2013-01-22 07:40:00,18.0,14.5,29.79,WNW,294,0.0,4.0,86,0.00,SCT,,0.00,WeatherDisplay:10.37,2013-01-22 12:40:00,
2013-01-22 07:45:00,18.1,14.4,29.80,West,273,0.0,3.0,85,0.00,SCT,,0.00,WeatherDisplay:10.37,2013-01-22 12:45:00,
2013-01-22 07:50:00,18.1,14.4,29.80,WNW,294,0.0,2.0,85,0.00,SCT,,0.00,WeatherDisplay:10.37,2013-01-22 12:50:00,
2013-01-22 07:55:00,18.2,14.4,29.80,West,278,1.0,3.0,85,0.00,SCT,,0.00,WeatherDisplay:10.37,2013-01-22 12:55:00,
2013-01-22 08:05:00,18.2,14.2,29.81,NW,313,1.0,3.0,84,0.00,FEW,,0.00,WeatherDisplay:10.37,2013-01-22 13:05:00,
2013-01-22 08:10:00,18.3,14.0,29.81,NW,317,0.0,6.0,83,0.00,FEW,,0.00,WeatherDisplay:10.37,2013-01-22 13:10:00,
2013-01-22 08:15:00,18.4,14.1,29.81,WNW,287,0.0,5.0,83,0.00,FEW,,0.00,WeatherDisplay:10.37,2013-01-22 13:15:00,
2013-01-22 08:20:00,18.4,13.8,29.81,West,271,1.0,4.0,82,0.00,FEW,,0.00,WeatherDisplay:10.37,2013-01-22 13:20:00,
2013-01-22 08:25:00,18.5,13.6,29.81,WNW,288,0.0,6.0,81,0.00,FEW,,0.00,WeatherDisplay:10.37,2013-01-22 13:25:00,
2013-01-22 08:30:00,18.6,13.5,29.81,NW,315,0.0,5.0,80,0.00,FEW,,0.00,WeatherDisplay:10.37,2013-01-22 13:30:00,
2013-01-22 08:40:00,18.9,13.2,29.82,West,264,1.0,4.0,78,0.00,FEW,,0.00,WeatherDisplay:10.37,2013-01-22 13:40:00,
2013-01-22 08:45:00,19.0,13.0,29.82,WNW,301,3.0,6.0,77,0.00,FEW,,0.00,WeatherDisplay:10.37,2013-01-22 13:45:00,
2013-01-22 08:50:00,19.2,12.8,29.82,WNW,285,1.0,5.0,76,0.00,FEW,,0.00,WeatherDisplay:10.37,2013-01-22 13:50:00,
2013-01-22 08:55:00,19.3,13.0,29.82,WNW,294,2.0,5.0,76,0.00,FEW,,0.00,WeatherDisplay:10.37,2013-01-22 13:55:00,
2013-01-22 09:00:00,19.4,12.5,29.83,WNW,303,1.0,6.0,74,0.00,FEW,,0.00,WeatherDisplay:10.37,2013-01-22 14:00:00,
2013-01-22 09:05:00,19.5,12.3,29.83,WNW,286,3.0,9.0,73,0.00,FEW,,0.00,WeatherDisplay:10.37,2013-01-22 14:05:00,
2013-01-22 09:10:00,19.7,12.4,29.83,WNW,283,1.0,8.0,73,0.00,FEW,,0.00,WeatherDisplay:10.37,2013-01-22 14:10:00,
2013-01-22 09:15:00,19.8,12.2,29.83,WNW,296,5.0,9.0,72,0.00,FEW,,0.00,WeatherDisplay:10.37,2013-01-22 14:15:00,
2013-01-22 09:20:00,19.9,12.3,29.83,WNW,289,1.0,6.0,72,0.00,FEW,,0.00,WeatherDisplay:10.37,2013-01-22 14:20:00,
2013-01-22 09:25:00,20.1,12.2,29.82,WNW,288,0.0,3.0,71,0.00,FEW,,0.00,WeatherDisplay:10.37,2013-01-22 14:25:00,
2013-01-22 09:30:00,20.2,11.7,29.83,NNW,330,0.0,5.0,69,0.00,FEW,,0.00,WeatherDisplay:10.37,2013-01-22 14:30:00,
2013-01-22 09:35:00,20.3,12.1,29.83,WNW,299,3.0,7.0,70,0.00,FEW,,0.00,WeatherDisplay:10.37,2013-01-22 14:35:00,
2013-01-22 09:40:00,20.4,11.2,29.83,WNW,294,1.0,10.0,67,0.00,FEW,,0.00,WeatherDisplay:10.37,2013-01-22 14:40:00,
2013-01-22 09:45:00,20.6,11.7,29.83,WNW,290,3.0,6.0,68,0.00,FEW,,0.00,WeatherDisplay:10.37,2013-01-22 14:45:00,
2013-01-22 09:55:00,20.9,10.9,29.83,WNW,297,1.0,7.0,65,0.00,FEW,,0.00,WeatherDisplay:10.37,2013-01-22 14:55:00,
2013-01-22 10:00:00,21.1,11.5,29.84,WNW,291,1.0,5.0,66,0.00,FEW,,0.00,WeatherDisplay:10.37,2013-01-22 15:00:00,
2013-01-22 10:05:00,21.2,10.6,29.84,WNW,294,5.0,8.0,63,0.00,FEW,,0.00,WeatherDisplay:10.37,2013-01-22 15:05:00,
2013-01-22 10:10:00,21.2,9.8,29.84,West,281,7.0,12.0,61,0.00,FEW,,0.00,WeatherDisplay:10.37,2013-01-22 15:10:00,
2013-01-22 10:15:00,21.2,9.4,29.84,West,279,5.0,12.0,60,0.00,FEW,,0.00,WeatherDisplay:10.37,2013-01-22 15:15:00,
2013-01-22 10:20:00,21.1,9.4,29.84,WNW,290,2.0,12.0,60,0.00,FEW,,0.00,WeatherDisplay:10.37,2013-01-22 15:20:00,
2013-01-22 10:25:00,21.2,9.5,29.84,NW,310,2.0,9.0,60,0.00,FEW,,0.00,WeatherDisplay:10.37,2013-01-22 15:25:00,
2013-01-22 10:30:00,21.3,9.9,29.84,WNW,299,3.0,8.0,61,0.00,FEW,,0.00,WeatherDisplay:10.37,2013-01-22 15:30:00,
2013-01-22 10:35:00,21.3,9.6,29.84,WNW,302,6.0,10.0,60,0.00,FEW,,0.00,WeatherDisplay:10.37,2013-01-22 15:35:00,
2013-01-22 10:40:00,21.2,8.7,29.85,WNW,292,3.0,8.0,58,0.00,FEW,,0.00,WeatherDisplay:10.37,2013-01-22 15:40:00,
2013-01-22 10:50:00,21.4,8.9,29.85,West,278,5.0,8.0,58,0.00,FEW,,0.00,WeatherDisplay:10.37,2013-01-22 15:50:00,
2013-01-22 11:00:00,21.4,8.5,29.84,WNW,282,3.0,8.0,57,0.00,FEW,,0.00,WeatherDisplay:10.37,2013-01-22 16:00:00,
2013-01-22 11:05:00,21.5,8.6,29.84,NNW,339,0.0,6.0,57,0.00,FEW,,0.00,WeatherDisplay:10.37,2013-01-22 16:05:00,
2013-01-22 11:10:00,21.8,8.1,29.84,NW,314,1.0,6.0,55,0.00,FEW,,0.00,WeatherDisplay:10.37,2013-01-22 16:10:00,
2013-01-22 11:15:00,22.0,8.7,29.84,West,277,2.0,8.0,56,0.00,FEW,,0.00,WeatherDisplay:10.37,2013-01-22 16:15:00,
2013-01-22 11:20:00,22.0,8.3,29.84,WNW,301,1.0,8.0,55,0.00,SCT,,0.00,WeatherDisplay:10.37,2013-01-22 16:20:00,
2013-01-22 11:25:00,22.1,8.4,29.84,WNW,301,2.0,6.0,55,0.00,SCT,,0.00,WeatherDisplay:10.37,2013-01-22 16:25:00,
2013-01-22 11:30:00,22.2,8.1,29.84,WNW,296,0.0,5.0,54,0.00,SCT,,0.00,WeatherDisplay:10.37,2013-01-22 16:30:00,
2013-01-22 11:40:00,22.0,8.3,29.84,West,281,2.0,8.0,55,0.00,SCT,,0.00,WeatherDisplay:10.37,2013-01-22 16:40:00,
2013-01-22 11:45:00,21.8,8.1,29.83,West,267,3.0,12.0,55,0.00,SCT,,0.00,WeatherDisplay:10.37,2013-01-22 16:45:00,
2013-01-22 11:50:00,21.7,8.4,29.83,West,275,2.0,7.0,56,0.00,SCT,,0.00,WeatherDisplay:10.37,2013-01-22 16:50:00,
2013-01-22 11:55:00,21.8,8.9,29.84,West,277,2.0,6.0,57,0.00,SCT,,0.00,WeatherDisplay:10.37,2013-01-22 16:55:00,
2013-01-22 12:00:00,21.6,8.3,29.84,WNW,283,2.0,6.0,56,0.00,SCT,,0.00,WeatherDisplay:10.37,2013-01-22 17:00:00,
2013-01-22 12:05:00,21.7,8.8,29.84,West,278,2.0,6.0,57,0.00,SCT,,0.00,WeatherDisplay:10.37,2013-01-22 17:05:00,
2013-01-22 12:10:00,21.8,8.5,29.83,West,272,2.0,6.0,56,0.00,SCT,,0.00,WeatherDisplay:10.37,2013-01-22 17:10:00,
2013-01-22 12:15:00,22.0,8.3,29.83,West,269,2.0,8.0,55,0.00,SCT,,0.00,WeatherDisplay:10.37,2013-01-22 17:15:00,
2013-01-22 12:20:00,22.2,8.1,29.84,West,260,3.0,8.0,54,0.00,SCT,,0.00,WeatherDisplay:10.37,2013-01-22 17:20:00,
2013-01-22 12:25:00,22.2,6.4,29.83,West,263,2.0,7.0,50,0.00,SCT,,0.00,WeatherDisplay:10.37,2013-01-22 17:25:00,
2013-01-22 12:30:00,21.9,5.6,29.83,WNW,289,2.0,8.0,49,0.00,SCT,,0.00,WeatherDisplay:10.37,2013-01-22 17:30:00,
2013-01-22 12:35:00,21.7,6.3,29.83,WNW,290,1.0,4.0,51,0.00,SCT,,0.00,WeatherDisplay:10.37,2013-01-22 17:35:00,
2013-01-22 12:45:00,21.5,6.6,29.83,West,260,2.0,7.0,52,0.00,SCT,,0.00,WeatherDisplay:10.37,2013-01-22 17:45:00,
2013-01-22 12:50:00,21.6,7.5,29.83,West,266,1.0,5.0,54,0.00,SCT,,0.00,WeatherDisplay:10.37,2013-01-22 17:50:00,
2013-01-22 12:55:00,21.8,7.7,29.83,West,278,1.0,4.0,54,0.00,SCT,,0.00,WeatherDisplay:10.37,2013-01-22 17:55:00,
2013-01-22 13:00:00,22.0,7.0,29.83,WNW,283,3.0,6.0,52,0.00,SCT,,0.00,WeatherDisplay:10.37,2013-01-22 18:00:00,
2013-01-22 13:05:00,22.1,6.7,29.83,West,279,0.0,7.0,51,0.00,SCT,,0.00,WeatherDisplay:10.37,2013-01-22 18:05:00,
2013-01-22 13:10:00,22.2,5.5,29.83,WNW,282,1.0,5.0,48,0.00,SCT,,0.00,WeatherDisplay:10.37,2013-01-22 18:10:00,
2013-01-22 13:15:00,22.3,5.6,29.83,WSW,255,3.0,6.0,48,0.00,SCT,,0.00,WeatherDisplay:10.37,2013-01-22 18:15:00,
2013-01-22 13:20:00,22.3,5.6,29.83,West,263,2.0,5.0,48,0.00,BKN,,0.00,WeatherDisplay:10.37,2013-01-22 18:20:00,
2013-01-22 13:25:00,22.6,5.8,29.83,West,267,3.0,8.0,48,0.00,BKN,,0.00,WeatherDisplay:10.37,2013-01-22 18:25:00,
2013-01-22 13:30:00,22.9,5.6,29.84,WNW,291,2.0,8.0,47,0.00,BKN,,0.00,WeatherDisplay:10.37,2013-01-22 18:30:00,
2013-01-22 13:35:00,22.8,6.0,29.83,WNW,290,2.0,7.0,48,0.00,BKN,,0.00,WeatherDisplay:10.37,2013-01-22 18:35:00,
2013-01-22 13:40:00,22.4,4.7,29.84,West,270,1.0,8.0,46,0.00,BKN,,0.00,WeatherDisplay:10.37,2013-01-22 18:40:00,
2013-01-22 13:50:00,21.8,4.6,29.84,West,280,2.0,8.0,47,0.00,BKN,,0.00,WeatherDisplay:10.37,2013-01-22 18:50:00,
2013-01-22 13:55:00,21.6,4.0,29.84,West,278,2.0,7.0,46,0.00,BKN,,0.00,WeatherDisplay:10.37,2013-01-22 18:55:00,
2013-01-22 14:00:00,21.5,4.3,29.84,WNW,289,3.0,7.0,47,0.00,BKN,,0.00,WeatherDisplay:10.37,2013-01-22 19:00:00,
2013-01-22 14:05:00,21.4,3.3,29.85,West,281,3.0,10.0,45,0.00,BKN,,0.00,WeatherDisplay:10.37,2013-01-22 19:05:00,
2013-01-22 14:10:00,21.4,4.3,29.85,West,280,2.0,9.0,47,0.00,BKN,,0.00,WeatherDisplay:10.37,2013-01-22 19:10:00,
2013-01-22 14:15:00,21.5,3.4,29.85,WNW,298,3.0,7.0,45,0.00,BKN,,0.00,WeatherDisplay:10.37,2013-01-22 19:15:00,
2013-01-22 14:25:00,21.4,2.8,29.85,WNW,294,2.0,4.0,44,0.00,BKN,,0.00,WeatherDisplay:10.37,2013-01-22 19:25:00,
2013-01-22 14:35:00,21.4,3.8,29.86,WNW,300,1.0,4.0,46,0.00,BKN,,0.00,WeatherDisplay:10.37,2013-01-22 19:35:00,
2013-01-22 14:40:00,21.2,3.6,29.87,NW,308,2.0,6.0,46,0.00,BKN,,0.00,WeatherDisplay:10.37,2013-01-22 19:40:00,
2013-01-22 14:50:00,20.8,3.7,29.87,WNW,303,0.0,7.0,47,0.00,BKN,,0.00,WeatherDisplay:10.37,2013-01-22 19:50:00,
2013-01-22 14:55:00,20.6,4.0,29.87,NW,306,2.0,5.0,48,0.00,BKN,,0.00,WeatherDisplay:10.37,2013-01-22 19:55:00,
2013-01-22 15:00:00,20.5,3.9,29.88,WNW,293,0.0,3.0,48,0.00,BKN,,0.00,WeatherDisplay:10.37,2013-01-22 20:00:00,
2013-01-22 15:05:00,20.4,3.8,29.88,WNW,287,0.0,4.0,48,0.00,BKN,,0.00,WeatherDisplay:10.37,2013-01-22 20:05:00,
2013-01-22 15:10:00,20.5,3.5,29.88,WNW,299,1.0,2.0,47,0.00,BKN,,0.00,WeatherDisplay:10.37,2013-01-22 20:10:00,
2013-01-22 15:15:00,20.7,3.1,29.88,NW,307,0.0,4.0,46,0.00,BKN,,0.00,WeatherDisplay:10.37,2013-01-22 20:15:00,
2013-01-22 15:20:00,20.8,2.3,29.89,West,277,3.0,7.0,44,0.00,BKN,,0.00,WeatherDisplay:10.37,2013-01-22 20:20:00,
2013-01-22 15:25:00,21.1,0.0,29.89,WNW,283,1.0,12.0,39,0.00,BKN,,0.00,WeatherDisplay:10.37,2013-01-22 20:25:00,
2013-01-22 15:30:00,21.1,1.0,29.89,WNW,291,1.0,6.0,41,0.00,BKN,,0.00,WeatherDisplay:10.37,2013-01-22 20:30:00,
2013-01-22 15:35:00,21.1,1.5,29.90,WNW,300,1.0,7.0,42,0.00,BKN,,0.00,WeatherDisplay:10.37,2013-01-22 20:35:00,
2013-01-22 15:40:00,20.8,0.8,29.89,WNW,282,1.0,3.0,41,0.00,BKN,,0.00,WeatherDisplay:10.37,2013-01-22 20:40:00,
2013-01-22 15:45:00,20.7,0.7,29.89,West,271,1.0,5.0,41,0.00,BKN,,0.00,WeatherDisplay:10.37,2013-01-22 20:45:00,
2013-01-22 15:50:00,20.6,0.1,29.90,WNW,292,2.0,10.0,40,0.00,BKN,,0.00,WeatherDisplay:10.37,2013-01-22 20:50:00,
2013-01-22 15:55:00,20.4,-0.7,29.90,West,273,3.0,9.0,39,0.00,BKN,,0.00,WeatherDisplay:10.37,2013-01-22 20:55:00,
2013-01-22 16:00:00,20.2,-0.3,29.90,WSW,248,2.0,7.0,40,0.00,BKN,,0.00,WeatherDisplay:10.37,2013-01-22 21:00:00,
2013-01-22 16:05:00,20.0,0.0,29.91,West,262,1.0,5.0,41,0.00,SCT,,0.00,WeatherDisplay:10.37,2013-01-22 21:05:00,
2013-01-22 16:15:00,19.6,0.7,29.91,West,263,0.0,7.0,43,0.00,SCT,,0.00,WeatherDisplay:10.37,2013-01-22 21:15:00,
2013-01-22 16:25:00,19.2,1.8,29.91,WNW,294,0.0,2.0,46,0.00,SCT,,0.00,WeatherDisplay:10.37,2013-01-22 21:25:00,
2013-01-22 16:30:00,19.1,1.6,29.92,West,281,0.0,4.0,46,0.00,SCT,,0.00,WeatherDisplay:10.37,2013-01-22 21:30:00,
2013-01-22 16:35:00,18.9,2.0,29.92,West,280,0.0,3.0,47,0.00,SCT,,0.00,WeatherDisplay:10.37,2013-01-22 21:35:00,
2013-01-22 16:40:00,18.7,1.8,29.92,West,278,0.0,4.0,47,0.00,SCT,,0.00,WeatherDisplay:10.37,2013-01-22 21:40:00,
2013-01-22 16:45:00,18.5,2.0,29.92,WNW,285,0.0,0.0,48,0.00,SCT,,0.00,WeatherDisplay:10.37,2013-01-22 21:45:00,
2013-01-22 16:50:00,18.3,1.9,29.92,WNW,286,0.0,3.0,48,0.00,SCT,,0.00,WeatherDisplay:10.37,2013-01-22 21:50:00,
2013-01-22 16:55:00,18.1,1.7,29.92,WNW,287,0.0,0.0,48,0.00,SCT,,0.00,WeatherDisplay:10.37,2013-01-22 21:55:00,
2013-01-22 17:00:00,18.0,2.0,29.93,NW,311,0.0,7.0,49,0.00,SCT,,0.00,WeatherDisplay:10.37,2013-01-22 22:00:00,
2013-01-22 17:05:00,17.9,1.5,29.93,NNW,328,0.0,3.0,48,0.00,SCT,,0.00,WeatherDisplay:10.37,2013-01-22 22:05:00,
2013-01-22 17:10:00,17.7,1.7,29.93,NW,304,1.0,4.0,49,0.00,SCT,,0.00,WeatherDisplay:10.37,2013-01-22 22:10:00,
2013-01-22 17:15:00,17.6,1.7,29.94,WNW,287,0.0,4.0,49,0.00,SCT,,0.00,WeatherDisplay:10.37,2013-01-22 22:15:00,
2013-01-22 17:20:00,17.5,2.0,29.94,WNW,288,1.0,3.0,50,0.00,SCT,,0.00,WeatherDisplay:10.37,2013-01-22 22:20:00,
2013-01-22 17:25:00,17.3,2.2,29.94,NW,312,0.0,3.0,51,0.00,SCT,,0.00,WeatherDisplay:10.37,2013-01-22 22:25:00,
2013-01-22 17:30:00,17.2,2.1,29.95,WNW,293,0.0,3.0,51,0.00,SCT,,0.00,WeatherDisplay:10.37,2013-01-22 22:30:00,
2013-01-22 17:35:00,17.0,2.4,29.95,WNW,289,0.0,3.0,52,0.00,SCT,,0.00,WeatherDisplay:10.37,2013-01-22 22:35:00,
2013-01-22 17:40:00,16.9,2.7,29.95,WNW,294,0.0,0.0,53,0.00,SCT,,0.00,WeatherDisplay:10.37,2013-01-22 22:40:00,
2013-01-22 17:45:00,16.7,2.9,29.96,West,275,1.0,4.0,54,0.00,SCT,,0.00,WeatherDisplay:10.37,2013-01-22 22:45:00,
2013-01-22 17:50:00,16.7,2.1,29.96,West,273,2.0,5.0,52,0.00,SCT,,0.00,WeatherDisplay:10.37,2013-01-22 22:50:00,
2013-01-22 17:55:00,16.7,2.5,29.96,West,272,0.0,2.0,53,0.00,SCT,,0.00,WeatherDisplay:10.37,2013-01-22 22:55:00,
2013-01-22 18:00:00,16.6,2.4,29.96,WNW,297,0.0,0.0,53,0.00,SCT,,0.00,WeatherDisplay:10.37,2013-01-22 23:00:00,
2013-01-22 18:05:00,16.4,2.2,29.97,NW,310,1.0,2.0,53,0.00,SCT,,0.00,WeatherDisplay:10.37,2013-01-22 23:05:00,
2013-01-22 18:10:00,16.3,1.7,29.97,West,281,0.0,2.0,52,0.00,SCT,,0.00,WeatherDisplay:10.37,2013-01-22 23:10:00,
2013-01-22 18:15:00,16.2,2.0,29.97,WSW,254,0.0,4.0,53,0.00,SCT,,0.00,WeatherDisplay:10.37,2013-01-22 23:15:00,
2013-01-22 18:20:00,16.1,1.1,29.98,WSW,257,0.0,2.0,51,0.00,FEW,,0.00,WeatherDisplay:10.37,2013-01-22 23:20:00,
2013-01-22 18:25:00,16.1,1.1,29.98,West,280,1.0,5.0,51,0.00,FEW,,0.00,WeatherDisplay:10.37,2013-01-22 23:25:00,
2013-01-22 18:30:00,15.9,1.4,29.98,WNW,283,0.0,4.0,52,0.00,FEW,,0.00,WeatherDisplay:10.37,2013-01-22 23:30:00,
2013-01-22 18:35:00,15.8,1.3,29.99,West,279,1.0,4.0,52,0.00,FEW,,0.00,WeatherDisplay:10.37,2013-01-22 23:35:00,
2013-01-22 18:40:00,15.7,1.2,29.99,West,281,0.0,5.0,52,0.00,FEW,,0.00,WeatherDisplay:10.37,2013-01-22 23:40:00,
2013-01-22 18:45:00,15.6,1.9,29.99,West,278,0.0,1.0,54,0.00,FEW,,0.00,WeatherDisplay:10.37,2013-01-22 23:45:00,
2013-01-22 18:50:00,15.6,1.9,30.00,West,280,1.0,10.0,54,0.00,FEW,,0.00,WeatherDisplay:10.37,2013-01-22 23:50:00,
2013-01-22 18:55:00,15.8,3.6,30.00,WNW,282,5.0,10.0,58,0.00,FEW,,0.00,WeatherDisplay:10.37,2013-01-22 23:55:00,
2013-01-22 19:00:00,15.8,5.8,30.00,WNW,294,2.0,8.0,64,0.00,FEW,,0.00,WeatherDisplay:10.37,2013-01-23 00:00:00,
2013-01-22 19:05:00,15.7,6.7,30.00,WNW,292,1.0,6.0,67,0.00,BKN,,0.00,WeatherDisplay:10.37,2013-01-23 00:05:00,
2013-01-22 19:10:00,15.5,6.8,30.00,NW,305,1.0,4.0,68,0.00,BKN,,0.00,WeatherDisplay:10.37,2013-01-23 00:10:00,
2013-01-22 19:15:00,15.4,6.7,30.00,WNW,296,3.0,6.0,68,0.00,BKN,,0.00,WeatherDisplay:10.37,2013-01-23 00:15:00,
2013-01-22 19:20:00,15.2,6.6,30.00,WNW,292,0.0,4.0,68,0.00,BKN,,0.00,WeatherDisplay:10.37,2013-01-23 00:20:00,
2013-01-22 19:25:00,15.1,6.8,30.01,WNW,301,0.0,2.0,69,0.00,BKN,,0.00,WeatherDisplay:10.37,2013-01-23 00:25:00,
2013-01-22 19:30:00,14.9,6.3,30.01,WNW,293,1.0,5.0,68,0.00,BKN,,0.00,WeatherDisplay:10.37,2013-01-23 00:30:00,
2013-01-22 19:35:00,14.8,5.8,30.01,WNW,298,0.0,0.0,67,0.00,BKN,,0.00,WeatherDisplay:10.37,2013-01-23 00:35:00,
2013-01-22 19:40:00,14.7,5.7,30.01,NW,312,0.0,0.0,67,0.00,BKN,,0.00,WeatherDisplay:10.37,2013-01-23 00:40:00,
2013-01-22 19:45:00,14.5,5.5,30.01,NW,309,0.0,0.0,67,0.00,BKN,,0.00,WeatherDisplay:10.37,2013-01-23 00:45:00,
2013-01-22 19:50:00,14.4,6.0,30.01,NW,306,0.0,0.0,69,0.00,BKN,,0.00,WeatherDisplay:10.37,2013-01-23 00:50:00,
2013-01-22 19:55:00,14.1,5.5,30.01,NW,306,0.0,0.0,68,0.00,BKN,,0.00,WeatherDisplay:10.37,2013-01-23 00:55:00,
2013-01-22 20:00:00,14.0,5.4,30.01,NW,309,1.0,3.0,68,0.00,BKN,,0.00,WeatherDisplay:10.37,2013-01-23 01:00:00,
2013-01-22 20:05:00,13.9,5.6,30.01,NW,316,0.0,0.0,69,0.00,BKN,,0.00,WeatherDisplay:10.37,2013-01-23 01:05:00,
2013-01-22 20:10:00,13.7,5.1,30.01,NW,320,0.0,0.0,68,0.00,BKN,,0.00,WeatherDisplay:10.37,2013-01-23 01:10:00,
2013-01-22 20:15:00,13.6,5.0,30.01,NW,321,0.0,1.0,68,0.00,BKN,,0.00,WeatherDisplay:10.37,2013-01-23 01:15:00,
2013-01-22 20:20:00,13.4,5.1,30.02,NNW,336,0.0,0.0,69,0.00,CLR,,0.00,WeatherDisplay:10.37,2013-01-23 01:20:00,
2013-01-22 20:25:00,13.2,4.9,30.02,NNW,341,0.0,0.0,69,0.00,CLR,,0.00,WeatherDisplay:10.37,2013-01-23 01:25:00,
2013-01-22 20:30:00,13.0,4.7,30.02,NNW,341,0.0,0.0,69,0.00,CLR,,0.00,WeatherDisplay:10.37,2013-01-23 01:30:00,
2013-01-22 20:35:00,12.7,4.8,30.02,NNW,341,0.0,0.0,70,0.00,CLR,,0.00,WeatherDisplay:10.37,2013-01-23 01:35:00,
2013-01-22 20:40:00,12.5,4.6,30.02,NNW,341,0.0,0.0,70,0.00,CLR,,0.00,WeatherDisplay:10.37,2013-01-23 01:40:00,
2013-01-22 20:45:00,12.2,4.6,30.02,NNW,341,0.0,0.0,71,0.00,CLR,,0.00,WeatherDisplay:10.37,2013-01-23 01:45:00,
2013-01-22 20:50:00,12.1,5.4,30.02,NNW,341,0.0,0.0,74,0.00,CLR,,0.00,WeatherDisplay:10.37,2013-01-23 01:50:00,
2013-01-22 20:55:00,11.9,5.2,30.02,NNW,341,0.0,0.0,74,0.00,CLR,,0.00,WeatherDisplay:10.37,2013-01-23 01:55:00,
2013-01-22 21:00:00,11.7,4.7,30.02,NNW,341,0.0,0.0,73,0.00,CLR,,0.00,WeatherDisplay:10.37,2013-01-23 02:00:00,
2013-01-22 21:05:00,11.4,4.4,30.02,NNW,341,0.0,0.0,73,0.00,CLR,,0.00,WeatherDisplay:10.37,2013-01-23 02:05:00,
2013-01-22 21:10:00,11.2,4.5,30.02,NNW,341,0.0,0.0,74,0.00,CLR,,0.00,WeatherDisplay:10.37,2013-01-23 02:10:00,
2013-01-22 21:15:00,11.0,4.3,30.03,NNW,341,0.0,0.0,74,0.00,CLR,,0.00,WeatherDisplay:10.37,2013-01-23 02:15:00,
2013-01-22 21:20:00,10.8,4.1,30.03,NNW,341,0.0,0.0,74,0.00,CLR,,0.00,WeatherDisplay:10.37,2013-01-23 02:20:00,
2013-01-22 21:25:00,10.6,4.2,30.03,NNW,341,0.0,0.0,75,0.00,CLR,,0.00,WeatherDisplay:10.37,2013-01-23 02:25:00,
2013-01-22 21:30:00,10.4,4.6,30.03,NNW,341,0.0,0.0,77,0.00,CLR,,0.00,WeatherDisplay:10.37,2013-01-23 02:30:00,
2013-01-22 21:35:00,10.1,4.3,30.03,NNW,341,0.0,0.0,77,0.00,CLR,,0.00,WeatherDisplay:10.37,2013-01-23 02:35:00,
2013-01-22 21:40:00,9.9,3.8,30.03,NNW,341,0.0,0.0,76,0.00,CLR,,0.00,WeatherDisplay:10.37,2013-01-23 02:40:00,
2013-01-22 21:45:00,9.7,3.7,30.03,NNW,341,0.0,0.0,76,0.00,CLR,,0.00,WeatherDisplay:10.37,2013-01-23 02:45:00,
2013-01-22 21:50:00,9.5,3.5,30.03,NNW,341,0.0,0.0,76,0.00,CLR,,0.00,WeatherDisplay:10.37,2013-01-23 02:50:00,
2013-01-22 21:55:00,9.3,3.3,30.04,NNW,341,0.0,0.0,76,0.00,CLR,,0.00,WeatherDisplay:10.37,2013-01-23 02:55:00,
2013-01-22 22:00:00,9.0,3.0,30.04,NNW,341,0.0,0.0,76,0.00,CLR,,0.00,WeatherDisplay:10.37,2013-01-23 03:00:00,
2013-01-22 22:05:00,8.8,3.1,30.04,NNW,341,0.0,0.0,77,0.00,CLR,,0.00,WeatherDisplay:10.37,2013-01-23 03:05:00,
2013-01-22 22:10:00,8.6,3.4,30.04,NNW,341,0.0,0.0,79,0.00,CLR,,0.00,WeatherDisplay:10.37,2013-01-23 03:10:00,
2013-01-22 22:15:00,8.5,3.3,30.05,NNW,341,0.0,0.0,79,0.00,CLR,,0.00,WeatherDisplay:10.37,2013-01-23 03:15:00,
2013-01-22 22:20:00,8.5,3.3,30.05,NNW,341,0.0,1.0,79,0.00,CLR,,0.00,WeatherDisplay:10.37,2013-01-23 03:20:00,
2013-01-22 22:25:00,8.4,2.4,30.05,NW,318,0.0,0.0,76,0.00,CLR,,0.00,WeatherDisplay:10.37,2013-01-23 03:25:00,
2013-01-22 22:30:00,8.5,2.5,30.05,NW,305,0.0,0.0,76,0.00,CLR,,0.00,WeatherDisplay:10.37,2013-01-23 03:30:00,
2013-01-22 22:35:00,8.7,1.5,30.05,NW,307,1.0,5.0,72,0.00,CLR,,0.00,WeatherDisplay:10.37,2013-01-23 03:35:00,
2013-01-22 22:40:00,9.0,1.5,30.05,NW,306,0.0,1.0,71,0.00,CLR,,0.00,WeatherDisplay:10.37,2013-01-23 03:40:00,
2013-01-22 22:50:00,9.7,-0.4,30.06,West,270,0.0,4.0,63,0.00,CLR,,0.00,WeatherDisplay:10.37,2013-01-23 03:50:00,
2013-01-22 22:55:00,10.0,-0.8,30.05,WNW,298,0.0,1.0,61,0.00,CLR,,0.00,WeatherDisplay:10.37,2013-01-23 03:55:00,
2013-01-22 23:00:00,10.2,-1.3,30.05,NW,325,1.0,2.0,59,0.00,CLR,,0.00,WeatherDisplay:10.37,2013-01-23 04:00:00,
2013-01-22 23:05:00,10.4,-1.5,30.06,NW,308,0.0,1.0,58,0.00,CLR,,0.00,WeatherDisplay:10.37,2013-01-23 04:05:00,
2013-01-22 23:15:00,10.3,-1.9,30.06,West,266,0.0,0.0,57,0.00,CLR,,0.00,WeatherDisplay:10.37,2013-01-23 04:15:00,
2013-01-22 23:20:00,10.2,-2.0,30.05,West,266,0.0,0.0,57,0.00,CLR,,0.00,WeatherDisplay:10.37,2013-01-23 04:20:00,
2013-01-22 23:25:00,10.0,-1.9,30.05,West,266,0.0,0.0,58,0.00,CLR,,0.00,WeatherDisplay:10.37,2013-01-23 04:25:00,
2013-01-22 23:30:00,9.8,-1.7,30.06,West,266,0.0,0.0,59,0.00,CLR,,0.00,WeatherDisplay:10.37,2013-01-23 04:30:00,
2013-01-22 23:35:00,9.6,-1.5,30.06,West,266,0.0,0.0,60,0.00,CLR,,0.00,WeatherDisplay:10.37,2013-01-23 04:35:00,
2013-01-22 23:40:00,9.4,-1.7,30.06,West,266,0.0,0.0,60,0.00,CLR,,0.00,WeatherDisplay:10.37,2013-01-23 04:40:00,
2013-01-22 23:45:00,9.2,-2.3,30.06,West,266,0.0,0.0,59,0.00,CLR,,0.00,WeatherDisplay:10.37,2013-01-23 04:45:00,
2013-01-22 23:50:00,9.0,-2.1,30.05,West,266,0.0,0.0,60,0.00,CLR,,0.00,WeatherDisplay:10.37,2013-01-23 04:50:00,
2013-01-22 23:55:00,8.8,-1.6,30.05,West,266,0.0,0.0,62,0.00,CLR,,0.00,WeatherDisplay:10.37,2013-01-23 04:55:00,